createdAt,value
2023-04-04T00:00:24.829Z,86.80
2023-04-04T00:02:51.686Z,85.39
2023-04-04T00:05:18.495Z,85.26
2023-04-04T00:07:48.334Z,85.43
2023-04-04T00:10:15.115Z,85.23
2023-04-04T00:12:42.565Z,84.13
2023-04-04T00:15:09.704Z,85.21
2023-04-04T00:17:36.182Z,84.60
2023-04-04T00:20:04.353Z,84.28
2023-04-04T00:22:31.563Z,84.19
2023-04-04T00:24:59.076Z,85.02
2023-04-04T00:27:25.761Z,84.81
2023-04-04T00:29:52.508Z,84.39
2023-04-04T00:32:19.060Z,83.98
2023-04-04T00:34:45.552Z,85.07
2023-04-04T00:37:13.090Z,85.25
2023-04-04T00:39:39.668Z,84.90
2023-04-04T00:42:06.658Z,84.40
2023-04-04T00:44:35.660Z,83.70
2023-04-04T00:47:04.033Z,83.72
2023-04-04T00:49:30.515Z,84.42
2023-04-04T00:51:59.944Z,83.86
2023-04-04T00:54:27.499Z,84.27
2023-04-04T00:56:57.584Z,83.20
2023-04-04T00:59:29.148Z,84.26
2023-04-04T01:02:00.099Z,84.60
2023-04-04T01:04:29.385Z,85.00
2023-04-04T01:06:59.734Z,85.57
2023-04-04T01:09:27.788Z,86.68
2023-04-04T01:11:57.474Z,86.79
2023-04-04T01:14:24.131Z,86.94
2023-04-04T01:16:51.566Z,86.63
2023-04-04T01:19:42.033Z,86.11
2023-04-04T01:22:09.506Z,86.52
2023-04-04T01:24:36.392Z,86.28
2023-04-04T01:27:02.895Z,86.43
2023-04-04T01:29:29.547Z,86.49
2023-04-04T01:32:12.590Z,85.52
2023-04-04T01:34:59.575Z,85.29
2023-04-04T01:37:33.294Z,85.48
2023-04-04T01:40:08.628Z,85.08
2023-04-04T01:42:36.081Z,85.12
2023-04-04T01:45:02.948Z,85.34
2023-04-04T01:47:39.054Z,85.20
2023-04-04T01:50:07.403Z,85.23
2023-04-04T01:52:34.602Z,84.36
2023-04-04T01:55:01.508Z,85.07
2023-04-04T01:57:31.868Z,84.63
2023-04-04T01:59:59.294Z,85.13
2023-04-04T02:02:26.275Z,85.80
2023-04-04T02:04:52.753Z,85.44
2023-04-04T02:07:19.430Z,85.49
2023-04-04T02:09:46.237Z,84.89
2023-04-04T02:12:12.766Z,85.21
2023-04-04T02:14:40.755Z,85.04
2023-04-04T02:17:07.628Z,84.63
2023-04-04T02:19:34.122Z,84.42
2023-04-04T02:22:03.422Z,84.87
2023-04-04T02:24:32.813Z,83.95
2023-04-04T02:27:01.833Z,84.37
2023-04-04T02:29:28.393Z,84.61
2023-04-04T02:31:54.908Z,84.18
2023-04-04T02:34:21.386Z,85.00
2023-04-04T02:36:47.888Z,84.80
2023-04-04T02:39:14.403Z,84.63
2023-04-04T02:41:41.616Z,84.57
2023-04-04T02:44:09.803Z,85.21
2023-04-04T02:46:36.304Z,84.81
2023-04-04T02:49:06.028Z,84.59
2023-04-04T02:51:35.285Z,84.66
2023-04-04T02:54:06.293Z,84.50
2023-04-04T02:56:34.039Z,84.99
2023-04-04T02:59:00.536Z,85.16
2023-04-04T03:01:27.241Z,85.23
2023-04-04T03:03:53.949Z,85.72
2023-04-04T03:06:20.559Z,85.29
2023-04-04T03:08:47.037Z,85.68
2023-04-04T03:11:17.933Z,86.26
2023-04-04T03:13:44.439Z,86.33
2023-04-04T03:16:11.621Z,86.73
2023-04-04T03:18:38.147Z,86.90
2023-04-04T03:21:07.657Z,86.27
2023-04-04T03:23:37.147Z,86.78
2023-04-04T03:26:06.656Z,86.74
2023-04-04T03:28:35.735Z,86.77
2023-04-04T03:31:07.123Z,86.83
2023-04-04T03:33:38.107Z,87.44
2023-04-04T03:36:12.467Z,88.53
2023-04-04T03:38:39.297Z,88.66
2023-04-04T03:41:07.324Z,89.06
2023-04-04T03:43:37.822Z,89.17
2023-04-04T03:46:08.147Z,88.68
2023-04-04T03:48:38.152Z,90.08
2023-04-04T03:51:07.533Z,89.45
2023-04-04T03:53:36.769Z,88.96
2023-04-04T03:56:03.445Z,89.15
2023-04-04T03:58:30.770Z,89.74
2023-04-04T04:00:57.270Z,89.18
2023-04-04T04:03:23.813Z,89.66
2023-04-04T04:05:50.741Z,89.92
2023-04-04T04:08:17.196Z,88.74
2023-04-04T04:10:43.616Z,89.17
2023-04-04T04:13:10.111Z,89.51
2023-04-04T04:15:37.314Z,89.46
2023-04-04T04:18:04.021Z,89.55
2023-04-04T04:20:30.461Z,90.06
2023-04-04T04:22:56.902Z,89.69
2023-04-04T04:25:23.555Z,90.23
2023-04-04T04:27:50.978Z,89.87
2023-04-04T04:30:17.407Z,90.38
2023-04-04T04:32:44.018Z,90.53
2023-04-04T04:35:10.692Z,90.47
2023-04-04T04:37:40.959Z,90.78
2023-04-04T04:40:08.930Z,90.74
2023-04-04T04:42:38.290Z,90.94
2023-04-04T04:45:07.665Z,90.40
2023-04-04T04:47:34.166Z,89.58
2023-04-04T04:50:01.216Z,90.68
2023-04-04T04:52:29.238Z,90.12
2023-04-04T04:54:56.009Z,90.63
2023-04-04T04:57:23.080Z,91.21
2023-04-04T04:59:49.532Z,91.05
2023-04-04T05:02:16.716Z,91.12
2023-04-04T05:04:45.301Z,91.77
2023-04-04T05:07:12.524Z,91.59
2023-04-04T05:09:39.250Z,91.90
2023-04-04T05:12:06.086Z,91.88
2023-04-04T05:14:32.578Z,91.91
2023-04-04T05:16:59.158Z,91.77
2023-04-04T05:19:25.899Z,91.51
2023-04-04T05:21:52.428Z,91.74
2023-04-04T05:24:18.976Z,92.44
2023-04-04T05:26:47.116Z,91.99
2023-04-04T05:29:13.620Z,92.13
2023-04-04T05:31:40.462Z,92.74
2023-04-04T05:34:09.735Z,91.64
2023-04-04T05:36:39.275Z,91.12
2023-04-04T05:39:08.494Z,92.19
2023-04-04T05:41:35.055Z,91.99
2023-04-04T05:44:01.571Z,92.36
2023-04-04T05:46:28.231Z,91.50
2023-04-04T05:48:54.813Z,90.61
2023-04-04T05:51:21.568Z,91.34
2023-04-04T05:53:48.808Z,90.77
2023-04-04T05:56:15.483Z,91.14
2023-04-04T05:58:42.970Z,90.67
2023-04-04T06:01:09.432Z,90.86
2023-04-04T06:03:38.257Z,90.06
2023-04-04T06:06:07.749Z,89.75
2023-04-04T06:08:50.246Z,89.09
2023-04-04T06:11:19.800Z,89.67
2023-04-04T06:13:46.319Z,90.02
2023-04-04T06:16:12.834Z,89.76
2023-04-04T06:18:39.292Z,89.17
2023-04-04T06:21:07.988Z,88.79
2023-04-04T06:23:34.481Z,88.45
2023-04-04T06:26:00.999Z,88.84
2023-04-04T06:28:27.493Z,88.68
2023-04-04T06:30:53.968Z,89.22
2023-04-04T06:33:20.405Z,88.61
2023-04-04T06:35:46.847Z,87.34
2023-04-04T06:38:13.477Z,86.87
2023-04-04T06:40:40.285Z,86.73
2023-04-04T06:43:10.144Z,85.38
2023-04-04T06:45:37.661Z,85.34
2023-04-04T06:48:04.176Z,83.80
2023-04-04T06:50:33.871Z,84.03
2023-04-04T06:53:03.580Z,83.90
2023-04-04T06:55:30.148Z,83.28
2023-04-04T06:57:56.700Z,82.78
2023-04-04T07:00:23.636Z,82.72
2023-04-04T07:02:50.569Z,81.04
2023-04-04T07:05:18.127Z,78.98
2023-04-04T07:07:46.965Z,79.63
2023-04-04T07:10:13.519Z,78.50
2023-04-04T07:12:40.097Z,77.40
2023-04-04T07:15:10.072Z,77.01
2023-04-04T07:17:41.064Z,75.39
2023-04-04T07:20:08.499Z,74.47
2023-04-04T07:22:39.444Z,74.13
2023-04-04T07:25:07.544Z,74.10
2023-04-04T07:27:34.104Z,73.76
2023-04-04T07:30:00.549Z,72.69
2023-04-04T07:32:27.031Z,71.21
2023-04-04T07:34:53.642Z,68.76
2023-04-04T07:37:20.194Z,69.06
2023-04-04T07:39:47.702Z,66.78
2023-04-04T07:42:14.255Z,67.10
2023-04-04T07:44:40.803Z,65.02
2023-04-04T07:47:11.480Z,64.15
2023-04-04T07:49:38.560Z,64.33
2023-04-04T07:52:09.664Z,63.51
2023-04-04T07:54:38.469Z,65.53
2023-04-04T07:57:08.428Z,63.46
2023-04-04T07:59:37.811Z,60.49
2023-04-04T08:02:04.300Z,59.54
2023-04-04T08:04:30.943Z,60.28
2023-04-04T08:06:57.589Z,60.75
2023-04-04T08:09:24.987Z,60.33
2023-04-04T08:11:51.765Z,57.87
2023-04-04T08:14:18.245Z,55.34
2023-04-04T08:16:44.719Z,57.02
2023-04-04T08:19:11.478Z,57.23
2023-04-04T08:21:38.712Z,56.00
2023-04-04T08:24:05.266Z,54.29
2023-04-04T08:26:32.010Z,56.34
2023-04-04T08:28:58.591Z,54.12
2023-04-04T08:31:25.211Z,53.01
2023-04-04T08:33:52.502Z,52.17
2023-04-04T08:36:19.706Z,50.61
2023-04-04T08:38:46.236Z,50.58
2023-04-04T08:41:13.432Z,49.67
2023-04-04T08:43:43.644Z,48.03
2023-04-04T08:46:12.767Z,49.41
2023-04-04T08:48:41.600Z,48.75
2023-04-04T08:51:12.187Z,47.01
2023-04-04T08:53:41.756Z,45.80
2023-04-04T08:56:11.226Z,48.01
2023-04-04T08:58:40.960Z,44.63
2023-04-04T09:01:10.857Z,44.23
2023-04-04T09:03:42.720Z,44.98
2023-04-04T09:06:12.084Z,44.08
2023-04-04T09:08:40.090Z,42.63
2023-04-04T09:11:08.390Z,42.42
2023-04-04T09:13:41.488Z,43.49
2023-04-04T09:16:08.689Z,42.62
2023-04-04T09:18:39.041Z,41.78
2023-04-04T09:21:12.369Z,37.66
2023-04-04T09:23:39.544Z,38.72
2023-04-04T09:26:10.208Z,39.36
2023-04-04T09:28:39.563Z,40.04
2023-04-04T09:31:09.782Z,39.17
2023-04-04T09:33:38.745Z,39.63
2023-04-04T09:36:13.731Z,39.30
2023-04-04T09:38:45.404Z,39.04
2023-04-04T09:41:16.089Z,38.34
2023-04-04T09:43:45.816Z,37.05
2023-04-04T09:46:12.962Z,37.73
2023-04-04T09:48:39.516Z,38.48
2023-04-04T09:51:12.359Z,37.58
2023-04-04T09:53:39.925Z,35.72
2023-04-04T09:56:11.310Z,38.85
2023-04-04T09:58:44.261Z,37.54
2023-04-04T10:01:19.208Z,37.94
2023-04-04T10:03:55.120Z,38.01
2023-04-04T10:06:22.903Z,36.15
2023-04-04T10:08:49.876Z,36.03
2023-04-04T10:11:29.861Z,34.21
2023-04-04T10:13:57.519Z,36.08
2023-04-04T10:16:26.621Z,35.41
2023-04-04T10:18:53.543Z,36.68
2023-04-04T10:21:21.205Z,35.65
2023-04-04T10:23:48.837Z,35.41
2023-04-04T10:26:15.653Z,36.33
2023-04-04T10:28:43.912Z,35.64
2023-04-04T10:31:25.935Z,36.39
2023-04-04T10:33:59.489Z,33.80
2023-04-04T10:36:31.563Z,35.13
2023-04-04T10:39:10.466Z,36.49
2023-04-04T10:41:40.680Z,35.94
2023-04-04T10:44:23.584Z,36.09
2023-04-04T10:46:54.106Z,35.09
2023-04-04T10:49:22.438Z,34.33
2023-04-04T10:54:43.900Z,33.89
2023-04-04T10:57:13.688Z,34.74
2023-04-04T10:59:56.558Z,32.93
2023-04-04T11:02:55.773Z,32.87
2023-04-04T11:05:27.240Z,31.71
2023-04-04T11:10:30.967Z,33.18
2023-04-04T11:13:12.686Z,33.99
2023-04-04T11:16:11.951Z,33.64
2023-04-04T11:18:42.557Z,31.31
2023-04-04T11:21:18.595Z,31.35
2023-04-04T11:23:48.497Z,32.25
2023-04-04T11:26:27.695Z,33.00
2023-04-04T11:28:58.716Z,32.98
2023-04-04T11:31:28.876Z,32.63
2023-04-04T11:34:13.168Z,33.02
2023-04-04T11:36:41.554Z,31.66
2023-04-04T11:39:28.829Z,32.48
2023-04-04T11:42:06.874Z,30.87
2023-04-04T11:44:43.104Z,31.26
2023-04-04T11:47:12.673Z,31.93
2023-04-04T11:49:42.970Z,30.93
2023-04-04T11:52:18.480Z,32.64
2023-04-04T11:54:49.112Z,33.63
2023-04-04T11:57:20.572Z,34.95
2023-04-04T11:59:48.947Z,33.44
2023-04-04T12:02:29.799Z,33.19
2023-04-04T12:04:57.365Z,33.29
2023-04-04T12:07:24.782Z,33.22
2023-04-04T12:09:51.692Z,31.44
2023-04-04T12:12:18.290Z,30.49
2023-04-04T12:14:44.827Z,32.90
2023-04-04T12:17:12.452Z,32.05
2023-04-04T12:19:42.512Z,31.69
2023-04-04T12:22:09.034Z,31.20
2023-04-04T12:24:36.481Z,30.31
2023-04-04T12:27:03.722Z,30.53
2023-04-04T12:29:38.379Z,30.96
2023-04-04T12:32:06.580Z,29.84
2023-04-04T12:34:36.205Z,30.57
2023-04-04T12:37:05.482Z,32.49
2023-04-04T12:39:32.206Z,33.42
2023-04-04T12:42:01.583Z,30.98
2023-04-04T12:44:32.175Z,32.29
2023-04-04T12:47:00.950Z,30.37
2023-04-04T12:49:43.202Z,29.97
2023-04-04T12:52:21.751Z,31.90
2023-04-04T12:55:06.681Z,33.32
2023-04-04T12:57:36.673Z,30.80
2023-04-04T13:00:04.584Z,29.73
2023-04-04T13:02:31.451Z,30.57
2023-04-04T13:04:58.889Z,30.17
2023-04-04T13:07:32.933Z,30.95
2023-04-04T13:10:05.454Z,30.39
2023-04-04T13:12:56.821Z,31.31
2023-04-04T13:15:23.764Z,28.46
2023-04-04T13:17:51.434Z,29.57
2023-04-04T13:20:20.997Z,29.61
2023-04-04T13:22:47.901Z,31.15
2023-04-04T13:25:14.405Z,29.50
2023-04-04T13:27:43.716Z,30.47
2023-04-04T13:30:12.371Z,28.23
2023-04-04T13:32:38.952Z,29.41
2023-04-04T13:35:06.573Z,29.09
2023-04-04T13:37:33.116Z,28.70
2023-04-04T13:39:59.567Z,28.69
2023-04-04T13:42:30.242Z,28.75
2023-04-04T13:44:57.266Z,30.72
2023-04-04T13:47:27.511Z,30.22
2023-04-04T13:49:57.324Z,29.63
2023-04-04T13:52:24.093Z,29.00
2023-04-04T13:54:50.741Z,30.45
2023-04-04T13:57:17.297Z,30.42
2023-04-04T13:59:43.769Z,29.81
2023-04-04T14:02:12.945Z,31.49
2023-04-04T14:04:39.521Z,32.03
2023-04-04T14:07:06.491Z,32.02
2023-04-04T14:09:33.032Z,30.12
2023-04-04T14:11:59.540Z,30.07
2023-04-04T14:14:26.208Z,32.80
2023-04-04T14:16:53.041Z,29.85
2023-04-04T14:19:20.934Z,30.60
2023-04-04T14:21:48.476Z,30.44
2023-04-04T14:24:15.415Z,29.42
2023-04-04T14:26:44.894Z,30.34
2023-04-04T14:29:13.870Z,28.57
2023-04-04T14:31:42.785Z,28.32
2023-04-04T14:34:09.290Z,29.02
2023-04-04T14:36:35.952Z,29.84
2023-04-04T14:39:02.897Z,28.81
2023-04-04T14:41:29.456Z,29.61
2023-04-04T14:43:58.002Z,29.66
2023-04-04T14:46:25.747Z,29.20
2023-04-04T14:48:53.349Z,29.46
2023-04-04T14:51:20.001Z,31.22
2023-04-04T14:53:46.688Z,29.96
2023-04-04T14:56:16.374Z,30.68
2023-04-04T14:58:43.827Z,30.93
2023-04-04T15:01:12.610Z,30.78
2023-04-04T15:03:39.097Z,30.75
2023-04-04T15:06:05.909Z,31.51
2023-04-04T15:08:32.335Z,31.53
2023-04-04T15:11:01.131Z,31.01
2023-04-04T15:13:27.749Z,30.45
2023-04-04T15:15:54.281Z,30.53
2023-04-04T15:18:20.985Z,32.15
2023-04-04T15:20:47.788Z,30.92
2023-04-04T15:23:14.268Z,32.23
2023-04-04T15:25:42.700Z,30.67
2023-04-04T15:28:09.195Z,31.72
2023-04-04T15:30:35.846Z,33.08
2023-04-04T15:33:02.586Z,33.97
2023-04-04T15:35:29.109Z,34.42
2023-04-04T15:37:55.876Z,33.29
2023-04-04T15:40:22.452Z,32.80
2023-04-04T15:42:48.958Z,32.50
2023-04-04T15:45:16.155Z,32.90
2023-04-04T15:47:48.239Z,33.25
2023-04-04T15:50:14.886Z,33.75
2023-04-04T15:52:45.266Z,33.87
2023-04-04T15:55:17.022Z,33.73
2023-04-04T15:57:44.975Z,34.71
2023-04-04T16:00:15.114Z,33.06
2023-04-04T16:02:43.259Z,33.90
2023-04-04T16:05:10.229Z,33.90
2023-04-04T16:07:37.915Z,33.98
2023-04-04T16:10:04.840Z,34.69
2023-04-04T16:12:31.334Z,34.15
2023-04-04T16:14:57.902Z,34.33
2023-04-04T16:17:26.229Z,34.54
2023-04-04T16:19:52.915Z,34.18
2023-04-04T16:22:19.407Z,34.71
2023-04-04T16:24:45.884Z,34.92
2023-04-04T16:27:15.621Z,35.27
2023-04-04T16:29:43.495Z,36.12
2023-04-04T16:32:10.320Z,35.98
2023-04-04T16:34:38.785Z,36.26
2023-04-04T16:37:19.539Z,35.44
2023-04-04T16:39:52.109Z,35.50
2023-04-04T16:42:19.569Z,36.42
2023-04-04T16:44:47.315Z,36.40
2023-04-04T16:47:14.274Z,36.77
2023-04-04T16:49:42.640Z,36.36
2023-04-04T16:52:15.686Z,37.33
2023-04-04T16:54:45.688Z,36.04
2023-04-04T16:57:13.440Z,37.22
2023-04-04T16:59:39.974Z,37.12
2023-04-04T17:02:13.744Z,37.88
2023-04-04T17:04:45.398Z,37.95
2023-04-04T17:07:14.984Z,36.85
2023-04-04T17:09:42.720Z,36.92
2023-04-04T17:12:17.307Z,37.67
2023-04-04T17:14:44.211Z,37.88
2023-04-04T17:17:14.206Z,38.30
2023-04-04T17:19:44.624Z,37.56
2023-04-04T17:22:15.035Z,39.20
2023-04-04T17:24:43.413Z,37.88
2023-04-04T17:27:09.941Z,37.75
2023-04-04T17:29:36.860Z,38.28
2023-04-04T17:32:04.146Z,37.99
2023-04-04T17:34:36.866Z,38.81
2023-04-04T17:37:03.437Z,39.45
2023-04-04T17:39:30.090Z,39.10
2023-04-04T17:41:59.589Z,39.51
2023-04-04T17:44:26.686Z,39.23
2023-04-04T17:46:55.648Z,39.54
2023-04-04T17:49:23.760Z,39.99
2023-04-04T17:51:50.468Z,40.84
2023-04-04T17:54:17.299Z,40.83
2023-04-04T17:56:45.409Z,41.48
2023-04-04T17:59:14.655Z,40.96
2023-04-04T18:01:43.308Z,41.79
2023-04-04T18:04:10.002Z,42.01
2023-04-04T18:09:19.788Z,42.71
2023-04-04T18:11:46.352Z,43.35
2023-04-04T18:14:13.835Z,43.33
2023-04-04T18:16:41.271Z,43.44
2023-04-04T18:19:09.609Z,43.75
2023-04-04T18:21:36.822Z,43.56
2023-04-04T18:24:05.384Z,44.42
2023-04-04T18:26:32.195Z,44.44
2023-04-04T18:28:59.250Z,44.64
2023-04-04T18:31:26.620Z,44.57
2023-04-04T18:33:53.129Z,45.02
2023-04-04T18:36:19.663Z,45.59
2023-04-04T18:38:47.566Z,45.84
2023-04-04T18:41:17.485Z,46.01
2023-04-04T18:43:47.075Z,46.17
2023-04-04T18:46:16.708Z,46.73
2023-04-04T18:48:50.093Z,47.03
2023-04-04T18:51:17.498Z,47.02
2023-04-04T18:53:52.553Z,47.40
2023-04-04T18:56:18.995Z,47.25
2023-04-04T18:58:45.655Z,47.89
2023-04-04T19:01:13.523Z,47.92
2023-04-04T19:03:47.525Z,48.82
2023-04-04T19:06:15.270Z,48.87
2023-04-04T19:08:46.103Z,49.48
2023-04-04T19:11:15.589Z,49.81
2023-04-04T19:13:44.408Z,49.57
2023-04-04T19:16:11.060Z,49.91
2023-04-04T19:18:37.670Z,49.34
2023-04-04T19:21:05.638Z,50.02
2023-04-04T19:23:32.456Z,52.03
2023-04-04T19:26:02.104Z,50.60
2023-04-04T19:28:29.376Z,50.76
2023-04-04T19:30:56.120Z,50.38
2023-04-04T19:33:24.153Z,50.62
2023-04-04T19:35:54.420Z,51.19
2023-04-04T19:38:31.943Z,51.00
2023-04-04T19:41:00.931Z,51.58
2023-04-04T19:43:29.162Z,50.74
2023-04-04T19:46:06.703Z,51.12
2023-04-04T19:48:48.625Z,51.42
2023-04-04T19:51:15.092Z,51.38
2023-04-04T19:53:45.884Z,51.62
2023-04-04T19:56:16.068Z,51.79
2023-04-04T19:58:50.409Z,52.02
2023-04-04T20:01:22.866Z,51.98
2023-04-04T20:03:49.730Z,51.81
2023-04-04T20:06:27.617Z,52.25
2023-04-04T20:09:02.406Z,52.42
2023-04-04T20:11:34.005Z,52.43
2023-04-04T20:14:02.525Z,52.24
2023-04-04T20:16:29.884Z,52.08
2023-04-04T20:18:58.615Z,52.37
2023-04-04T20:21:29.945Z,52.84
2023-04-04T20:23:59.231Z,53.06
2023-04-04T20:26:48.301Z,52.86
2023-04-04T20:29:16.053Z,52.98
2023-04-04T20:31:44.450Z,52.94
2023-04-04T20:34:31.530Z,53.15
2023-04-04T20:36:58.080Z,52.94
2023-04-04T20:39:37.987Z,52.89
2023-04-04T20:42:26.078Z,52.98
2023-04-04T20:44:53.306Z,53.60
2023-04-04T20:47:52.837Z,53.72
2023-04-04T20:50:44.655Z,54.64
2023-04-04T20:53:17.992Z,54.90
2023-04-04T20:55:44.831Z,55.13
2023-04-04T20:58:40.523Z,54.23
2023-04-04T21:01:10.113Z,54.99
2023-04-04T21:03:37.316Z,55.62
2023-04-04T21:06:16.777Z,55.44
2023-04-04T21:08:49.822Z,55.49
2023-04-04T21:11:29.042Z,55.69
2023-04-04T21:13:56.747Z,55.98
2023-04-04T21:16:26.047Z,56.39
2023-04-04T21:19:01.093Z,56.72
2023-04-04T21:21:30.520Z,57.42
2023-04-04T21:23:59.201Z,57.84
2023-04-04T21:26:31.978Z,58.20
2023-04-04T21:29:01.142Z,58.48
2023-04-04T21:31:35.045Z,58.72
2023-04-04T21:34:31.174Z,58.39
2023-04-04T21:37:01.951Z,58.74
2023-04-04T21:39:29.882Z,59.16
2023-04-04T21:42:06.053Z,58.88
2023-04-04T21:44:34.593Z,60.08
2023-04-04T21:47:01.085Z,59.93
2023-04-04T21:49:28.357Z,60.60
2023-04-04T21:51:54.838Z,60.35
2023-04-04T21:54:23.202Z,61.45
2023-04-04T21:56:49.771Z,61.20
2023-04-04T21:59:16.324Z,60.95
2023-04-04T22:01:45.491Z,61.92
2023-04-04T22:04:15.890Z,62.82
2023-04-04T22:06:45.232Z,62.92
2023-04-04T22:09:11.907Z,63.46
2023-04-04T22:11:44.819Z,63.29
2023-04-04T22:14:17.488Z,63.48
2023-04-04T22:16:47.674Z,63.42
2023-04-04T22:19:17.960Z,65.03
2023-04-04T22:21:47.914Z,65.54
2023-04-04T22:24:18.296Z,66.06
2023-04-04T22:26:46.006Z,66.34
2023-04-04T22:29:12.946Z,66.27
2023-04-04T22:31:39.827Z,65.61
2023-04-04T22:34:06.530Z,65.93
2023-04-04T22:36:34.340Z,65.33
2023-04-04T22:39:01.950Z,65.30
2023-04-04T22:41:29.306Z,65.52
2023-04-04T22:43:57.155Z,65.49
2023-04-04T22:46:25.602Z,65.95
2023-04-04T22:48:55.426Z,66.61
2023-04-04T22:51:22.622Z,67.32
2023-04-04T22:53:49.188Z,66.41
2023-04-04T22:56:18.953Z,66.74
2023-04-04T22:58:45.895Z,66.62
2023-04-04T23:01:12.429Z,66.67
2023-04-04T23:03:39.013Z,66.17
2023-04-04T23:06:05.880Z,66.18
2023-04-04T23:08:32.306Z,66.04
2023-04-04T23:10:58.925Z,66.24
2023-04-04T23:13:25.559Z,67.10
2023-04-04T23:15:52.015Z,66.95
2023-04-04T23:18:21.981Z,67.53
2023-04-04T23:20:49.366Z,67.83
2023-04-04T23:23:15.802Z,67.97
2023-04-04T23:25:42.282Z,68.68
2023-04-04T23:28:08.727Z,69.10
2023-04-04T23:30:35.305Z,69.83
2023-04-04T23:33:01.774Z,70.16
2023-04-04T23:35:28.361Z,70.76
2023-04-04T23:37:54.924Z,71.20
2023-04-04T23:40:21.404Z,71.62
2023-04-04T23:42:51.574Z,72.07
2023-04-04T23:45:20.067Z,73.43
2023-04-04T23:47:46.666Z,74.60
2023-04-04T23:50:13.178Z,73.85
2023-04-04T23:52:40.277Z,74.89
2023-04-04T23:55:07.863Z,76.46
2023-04-04T23:57:34.284Z,76.55
